createdAt,value
2018-07-13T00:00:16.831Z,19.65
2018-07-13T00:02:45.589Z,19.63
2018-07-13T00:05:14.290Z,19.55
2018-07-13T00:07:42.998Z,19.54
2018-07-13T00:10:11.804Z,19.54
2018-07-13T00:12:40.508Z,19.55
2018-07-13T00:15:10.553Z,19.50
2018-07-13T00:17:39.517Z,19.50
2018-07-13T00:20:08.580Z,19.49
2018-07-13T00:22:37.293Z,19.55
2018-07-13T00:25:06.034Z,19.55
2018-07-13T00:27:34.736Z,19.54
2018-07-13T00:30:03.481Z,19.60
2018-07-13T00:32:32.207Z,19.65
2018-07-13T00:35:00.961Z,19.74
2018-07-13T00:37:29.684Z,19.74
2018-07-13T00:39:58.554Z,19.74
2018-07-13T00:42:27.266Z,19.69
2018-07-13T00:44:56.115Z,19.57
2018-07-13T00:47:24.830Z,19.57
2018-07-13T00:49:53.524Z,19.58
2018-07-13T00:52:22.360Z,19.57
2018-07-13T00:54:51.065Z,19.59
2018-07-13T00:57:19.778Z,19.57
2018-07-13T00:59:48.605Z,19.46
2018-07-13T01:02:17.315Z,19.46
2018-07-13T01:04:46.060Z,19.50
2018-07-13T01:07:14.790Z,19.48
2018-07-13T01:09:43.538Z,19.50
2018-07-13T01:12:12.258Z,19.52
2018-07-13T01:14:40.985Z,19.42
2018-07-13T01:17:09.709Z,19.47
2018-07-13T01:19:38.418Z,19.45
2018-07-13T01:22:07.129Z,19.46
2018-07-13T01:24:35.881Z,19.47
2018-07-13T01:27:04.578Z,19.48
2018-07-13T01:29:33.311Z,19.33
2018-07-13T01:32:02.040Z,19.34
2018-07-13T01:34:30.833Z,19.37
2018-07-13T01:36:59.573Z,19.37
2018-07-13T01:39:28.255Z,19.39
2018-07-13T01:41:56.942Z,19.42
2018-07-13T01:44:25.697Z,19.46
2018-07-13T01:46:54.392Z,19.45
2018-07-13T01:49:23.099Z,19.44
2018-07-13T01:51:51.811Z,19.44
2018-07-13T01:54:20.528Z,19.46
2018-07-13T01:56:49.227Z,19.45
2018-07-13T01:59:17.931Z,19.39
2018-07-13T02:01:46.675Z,19.32
2018-07-13T02:04:15.518Z,19.33
2018-07-13T02:06:44.358Z,19.40
2018-07-13T02:09:13.069Z,19.38
2018-07-13T02:11:41.782Z,19.37
2018-07-13T02:14:10.481Z,19.32
2018-07-13T02:16:39.177Z,19.36
2018-07-13T02:19:08.103Z,19.38
2018-07-13T02:21:36.838Z,19.41
2018-07-13T02:24:05.541Z,19.43
2018-07-13T02:26:34.250Z,19.45
2018-07-13T02:29:02.958Z,19.41
2018-07-13T02:31:31.683Z,19.42
2018-07-13T02:34:00.468Z,19.40
2018-07-13T02:36:29.149Z,19.41
2018-07-13T02:38:58.142Z,19.43
2018-07-13T02:41:27.005Z,19.45
2018-07-13T02:43:55.715Z,19.42
2018-07-13T02:46:24.453Z,19.45
2018-07-13T02:48:53.184Z,19.47
2018-07-13T02:51:21.927Z,19.45
2018-07-13T02:53:50.703Z,19.43
2018-07-13T02:56:19.457Z,19.34
2018-07-13T02:58:48.311Z,19.31
2018-07-13T03:01:17.155Z,19.33
2018-07-13T03:03:45.854Z,19.31
2018-07-13T03:06:14.551Z,19.34
2018-07-13T03:08:43.318Z,19.39
2018-07-13T03:11:12.081Z,19.45
2018-07-13T03:13:40.773Z,19.48
2018-07-13T03:16:09.472Z,19.51
2018-07-13T03:18:38.193Z,19.55
2018-07-13T03:21:06.938Z,19.61
2018-07-13T03:23:35.719Z,19.67
2018-07-13T03:26:04.457Z,19.80
2018-07-13T03:28:33.210Z,19.81
2018-07-13T03:31:01.941Z,19.91
2018-07-13T03:33:30.693Z,19.99
2018-07-13T03:35:59.458Z,20.08
2018-07-13T03:38:28.268Z,20.19
2018-07-13T03:40:56.920Z,20.39
2018-07-13T03:43:25.634Z,21.19
2018-07-13T03:45:54.331Z,22.53
2018-07-13T03:48:23.084Z,23.83
2018-07-13T03:50:51.826Z,24.78
2018-07-13T03:53:20.540Z,25.62
2018-07-13T03:55:49.241Z,26.54
2018-07-13T03:58:17.958Z,27.69
2018-07-13T04:00:46.639Z,28.86
2018-07-13T04:03:15.330Z,29.53
2018-07-13T04:05:44.021Z,30.30
2018-07-13T04:08:12.709Z,30.77
2018-07-13T04:10:41.401Z,31.01
2018-07-13T04:13:10.174Z,31.23
2018-07-13T04:15:38.894Z,31.52
2018-07-13T04:18:12.057Z,30.65
2018-07-13T04:20:40.778Z,30.92
2018-07-13T04:23:09.501Z,31.37
2018-07-13T04:25:38.209Z,32.59
2018-07-13T04:28:06.929Z,32.86
2018-07-13T04:30:35.678Z,33.57
2018-07-13T04:33:04.406Z,34.08
2018-07-13T04:35:33.102Z,34.46
2018-07-13T04:38:01.856Z,34.14
2018-07-13T04:40:30.577Z,33.97
2018-07-13T04:42:59.354Z,34.37
2018-07-13T04:45:28.070Z,34.26
2018-07-13T04:47:56.787Z,34.67
2018-07-13T04:50:25.728Z,34.26
2018-07-13T04:52:54.772Z,35.38
2018-07-13T04:55:23.648Z,35.59
2018-07-13T04:57:52.464Z,36.26
2018-07-13T05:00:21.800Z,36.07
2018-07-13T05:02:50.561Z,35.88
2018-07-13T05:05:19.279Z,36.24
2018-07-13T05:07:47.985Z,36.64
2018-07-13T05:10:16.718Z,37.19
2018-07-13T05:12:45.421Z,37.45
2018-07-13T05:15:14.121Z,38.12
2018-07-13T05:17:42.829Z,38.27
2018-07-13T05:20:11.565Z,38.76
2018-07-13T05:22:40.294Z,36.85
2018-07-13T05:25:09.613Z,35.68
2018-07-13T05:27:38.317Z,36.62
2018-07-13T05:30:07.578Z,37.15
2018-07-13T05:32:36.593Z,37.40
2018-07-13T05:35:05.355Z,37.77
2018-07-13T05:37:34.185Z,38.41
2018-07-13T05:40:04.093Z,39.10
2018-07-13T05:42:32.801Z,39.32
2018-07-13T05:45:01.529Z,38.67
2018-07-13T05:47:30.481Z,39.05
2018-07-13T05:49:59.190Z,38.75
2018-07-13T05:52:28.082Z,39.19
2018-07-13T05:54:57.779Z,39.43
2018-07-13T05:57:26.473Z,39.89
2018-07-13T05:59:55.268Z,39.55
2018-07-13T06:02:24.044Z,38.78
2018-07-13T06:04:52.746Z,39.09
2018-07-13T06:07:21.453Z,39.29
2018-07-13T06:09:50.298Z,39.19
2018-07-13T06:12:18.984Z,37.84
2018-07-13T06:14:47.842Z,39.30
2018-07-13T06:17:16.465Z,39.84
2018-07-13T06:19:45.189Z,40.36
2018-07-13T06:22:13.921Z,39.81
2018-07-13T06:24:42.677Z,40.42
2018-07-13T06:27:11.621Z,40.54
2018-07-13T06:29:40.327Z,41.35
2018-07-13T06:32:09.051Z,40.89
2018-07-13T06:34:37.770Z,40.72
2018-07-13T06:37:06.645Z,40.01
2018-07-13T06:39:35.354Z,39.90
2018-07-13T06:42:04.119Z,39.38
2018-07-13T06:44:32.840Z,38.85
2018-07-13T06:47:01.554Z,37.53
2018-07-13T06:49:30.342Z,36.13
2018-07-13T06:51:59.069Z,34.88
2018-07-13T06:54:27.794Z,34.48
2018-07-13T06:56:56.531Z,34.73
2018-07-13T06:59:25.278Z,36.07
2018-07-13T07:01:53.985Z,36.74
2018-07-13T07:04:26.269Z,37.53
2018-07-13T07:06:55.679Z,37.49
2018-07-13T07:09:25.113Z,37.90
2018-07-13T07:12:16.942Z,37.61
2018-07-13T07:14:45.797Z,37.88
2018-07-13T07:17:14.584Z,38.89
2018-07-13T07:19:43.422Z,39.20
2018-07-13T07:22:12.259Z,40.22
2018-07-13T07:24:40.974Z,40.80
2018-07-13T07:27:09.729Z,39.80
2018-07-13T07:29:38.540Z,38.63
2018-07-13T07:32:07.443Z,39.01
2018-07-13T07:34:36.284Z,38.73
2018-07-13T07:37:05.157Z,39.21
2018-07-13T07:39:34.092Z,39.14
2018-07-13T07:42:02.797Z,39.08
2018-07-13T07:44:31.538Z,39.61
2018-07-13T07:47:00.246Z,38.87
2018-07-13T07:49:28.950Z,39.17
2018-07-13T07:51:57.688Z,39.36
2018-07-13T07:54:26.391Z,40.03
2018-07-13T07:56:55.149Z,40.15
2018-07-13T07:59:23.864Z,39.04
2018-07-13T08:01:52.587Z,39.51
2018-07-13T08:04:21.318Z,40.07
2018-07-13T08:06:50.248Z,39.89
2018-07-13T08:09:18.842Z,39.52
2018-07-13T08:11:47.549Z,38.62
2018-07-13T08:14:16.643Z,39.67
2018-07-13T08:16:45.132Z,38.30
2018-07-13T08:19:14.117Z,38.86
2018-07-13T08:21:44.703Z,39.09
2018-07-13T08:24:19.806Z,39.89
2018-07-13T08:26:49.578Z,40.13
2018-07-13T08:29:20.895Z,40.12
2018-07-13T08:31:50.978Z,40.67
2018-07-13T08:34:21.903Z,41.23
2018-07-13T08:36:50.816Z,41.22
2018-07-13T08:39:19.570Z,40.29
2018-07-13T08:41:48.659Z,40.72
2018-07-13T08:44:17.572Z,40.89
2018-07-13T08:46:46.440Z,40.22
2018-07-13T08:49:15.406Z,40.03
2018-07-13T08:51:44.910Z,40.16
2018-07-13T08:54:13.718Z,39.46
2018-07-13T08:56:44.149Z,39.01
2018-07-13T08:59:13.633Z,39.13
2018-07-13T09:01:42.563Z,38.98
2018-07-13T09:04:11.339Z,38.74
2018-07-13T09:06:40.195Z,38.57
2018-07-13T09:09:14.601Z,38.66
2018-07-13T09:11:43.372Z,39.05
2018-07-13T09:14:12.267Z,38.91
2018-07-13T09:16:41.143Z,39.99
2018-07-13T09:19:09.988Z,38.75
2018-07-13T09:21:38.903Z,39.41
2018-07-13T09:24:07.822Z,40.24
2018-07-13T09:26:36.702Z,40.10
2018-07-13T09:29:05.535Z,40.29
2018-07-13T09:31:34.340Z,39.38
2018-07-13T09:34:03.158Z,38.85
2018-07-13T09:36:31.926Z,39.00
2018-07-13T09:39:00.803Z,38.97
2018-07-13T09:41:29.658Z,38.73
2018-07-13T09:43:58.534Z,38.93
2018-07-13T09:46:28.178Z,39.01
2018-07-13T09:48:57.089Z,39.74
2018-07-13T09:51:25.906Z,39.32
2018-07-13T09:53:54.837Z,39.22
2018-07-13T09:56:23.567Z,39.13
2018-07-13T09:58:52.333Z,40.23
2018-07-13T10:01:22.405Z,39.75
2018-07-13T10:03:51.157Z,39.42
2018-07-13T10:06:19.910Z,40.21
2018-07-13T10:08:48.710Z,39.50
2018-07-13T10:11:17.423Z,39.21
2018-07-13T10:13:46.243Z,38.98
2018-07-13T10:16:15.084Z,38.53
2018-07-13T10:18:44.008Z,37.57
2018-07-13T10:21:12.848Z,36.62
2018-07-13T10:23:42.492Z,36.98
2018-07-13T10:26:14.995Z,37.46
2018-07-13T10:28:44.008Z,38.49
2018-07-13T10:31:13.978Z,39.41
2018-07-13T10:33:43.048Z,40.13
2018-07-13T10:36:14.614Z,40.39
2018-07-13T10:38:43.477Z,40.13
2018-07-13T10:41:12.362Z,39.90
2018-07-13T10:43:41.472Z,39.17
2018-07-13T10:46:10.373Z,38.81
2018-07-13T10:48:39.161Z,39.46
2018-07-13T10:51:08.284Z,40.22
2018-07-13T10:53:37.094Z,39.99
2018-07-13T10:56:05.939Z,38.23
2018-07-13T10:58:34.803Z,37.10
2018-07-13T11:01:03.568Z,38.44
2018-07-13T11:03:32.395Z,39.96
2018-07-13T11:06:01.189Z,40.84
2018-07-13T11:08:30.014Z,39.17
2018-07-13T11:10:58.773Z,38.89
2018-07-13T11:13:27.682Z,39.37
2018-07-13T11:15:56.444Z,41.53
2018-07-13T11:18:25.171Z,41.46
2018-07-13T11:20:53.984Z,41.20
2018-07-13T11:23:22.769Z,40.80
2018-07-13T11:25:51.604Z,41.39
2018-07-13T11:28:20.434Z,40.89
2018-07-13T11:30:49.235Z,42.08
2018-07-13T11:33:18.060Z,42.16
2018-07-13T11:35:46.842Z,40.37
2018-07-13T11:38:15.702Z,39.47
2018-07-13T11:40:44.510Z,38.50
2018-07-13T11:43:13.365Z,39.70
2018-07-13T11:45:42.108Z,40.47
2018-07-13T11:48:10.854Z,40.96
2018-07-13T11:50:39.670Z,39.00
2018-07-13T11:53:08.430Z,39.13
2018-07-13T11:55:37.211Z,38.11
2018-07-13T11:58:05.932Z,37.68
2018-07-13T12:00:34.712Z,37.84
2018-07-13T12:03:04.202Z,36.16
2018-07-13T12:05:32.934Z,35.85
2018-07-13T12:08:01.659Z,37.88
2018-07-13T12:10:30.388Z,36.84
2018-07-13T12:12:59.112Z,37.09
2018-07-13T12:15:27.828Z,36.47
2018-07-13T12:17:56.546Z,36.86
2018-07-13T12:20:25.261Z,37.32
2018-07-13T12:22:54.061Z,37.49
2018-07-13T12:25:22.766Z,37.53
2018-07-13T12:27:51.546Z,37.62
2018-07-13T12:30:20.281Z,36.80
2018-07-13T12:32:49.029Z,35.45
2018-07-13T12:35:17.801Z,35.37
2018-07-13T12:37:46.526Z,35.12
2018-07-13T12:40:15.302Z,34.95
2018-07-13T12:42:44.028Z,34.05
2018-07-13T12:45:12.750Z,33.28
2018-07-13T12:47:41.495Z,33.95
2018-07-13T12:50:10.267Z,33.66
2018-07-13T12:52:39.017Z,33.47
2018-07-13T12:55:07.889Z,33.63
2018-07-13T12:57:36.675Z,33.29
2018-07-13T13:00:05.531Z,33.76
2018-07-13T13:02:34.285Z,33.58
2018-07-13T13:05:03.095Z,33.11
2018-07-13T13:07:31.994Z,33.27
2018-07-13T13:10:00.729Z,33.78
2018-07-13T13:12:29.501Z,34.14
2018-07-13T13:14:58.299Z,33.97
2018-07-13T13:17:27.048Z,34.23
2018-07-13T13:22:29.715Z,33.88
2018-07-13T13:24:58.456Z,34.06
2018-07-13T13:27:27.620Z,34.06
2018-07-13T13:29:56.351Z,33.55
2018-07-13T13:32:25.397Z,33.98
2018-07-13T13:34:54.435Z,34.03
2018-07-13T13:37:23.178Z,33.63
2018-07-13T13:39:51.954Z,33.33
2018-07-13T13:42:20.744Z,32.83
2018-07-13T13:44:49.467Z,32.84
2018-07-13T13:47:18.274Z,32.76
2018-07-13T13:49:46.999Z,32.26
2018-07-13T13:52:15.727Z,32.62
2018-07-13T13:54:44.454Z,32.95
2018-07-13T13:57:13.201Z,33.00
2018-07-13T13:59:41.966Z,32.66
2018-07-13T14:02:10.712Z,32.50
2018-07-13T14:04:39.479Z,32.50
2018-07-13T14:07:08.239Z,31.98
2018-07-13T14:09:36.933Z,32.09
2018-07-13T14:12:05.766Z,32.11
2018-07-13T14:14:34.512Z,32.15
2018-07-13T14:17:03.477Z,32.33
2018-07-13T14:19:32.217Z,32.58
2018-07-13T14:22:00.922Z,32.62
2018-07-13T14:24:29.717Z,32.13
2018-07-13T14:26:58.450Z,32.15
2018-07-13T14:29:27.169Z,31.98
2018-07-13T14:31:55.957Z,32.09
2018-07-13T14:34:24.699Z,32.23
2018-07-13T14:36:53.487Z,32.32
2018-07-13T14:39:22.240Z,32.42
2018-07-13T14:41:50.935Z,32.11
2018-07-13T14:44:19.688Z,31.85
2018-07-13T14:46:48.478Z,31.69
2018-07-13T14:49:17.570Z,31.46
2018-07-13T14:51:46.323Z,31.48
2018-07-13T14:54:15.160Z,31.32
2018-07-13T14:56:43.870Z,31.32
2018-07-13T14:59:12.586Z,31.34
2018-07-13T15:01:41.513Z,31.40
2018-07-13T15:04:10.232Z,31.27
2018-07-13T15:06:39.112Z,31.34
2018-07-13T15:09:07.979Z,31.27
2018-07-13T15:11:36.695Z,31.14
2018-07-13T15:14:05.524Z,31.09
2018-07-13T15:16:34.218Z,31.13
2018-07-13T15:19:03.141Z,30.98
2018-07-13T15:21:31.847Z,30.98
2018-07-13T15:24:00.577Z,31.01
2018-07-13T15:26:29.342Z,30.88
2018-07-13T15:28:58.264Z,30.95
2018-07-13T15:31:27.038Z,30.80
2018-07-13T15:33:55.774Z,30.86
2018-07-13T15:36:24.508Z,30.91
2018-07-13T15:38:53.310Z,30.86
2018-07-13T15:41:22.038Z,30.59
2018-07-13T15:43:50.866Z,30.54
2018-07-13T15:46:19.636Z,30.47
2018-07-13T15:48:48.366Z,30.46
2018-07-13T15:51:17.247Z,30.40
2018-07-13T15:53:45.982Z,30.37
2018-07-13T15:56:14.699Z,30.21
2018-07-13T15:58:43.554Z,30.21
2018-07-13T16:01:12.211Z,30.26
2018-07-13T16:03:41.004Z,30.24
2018-07-13T16:06:09.759Z,30.13
2018-07-13T16:08:38.540Z,30.07
2018-07-13T16:11:07.421Z,29.97
2018-07-13T16:13:36.148Z,29.98
2018-07-13T16:16:04.932Z,29.87
2018-07-13T16:18:33.664Z,29.90
2018-07-13T16:21:02.383Z,29.82
2018-07-13T16:23:31.194Z,29.80
2018-07-13T16:25:59.940Z,29.80
2018-07-13T16:28:28.738Z,29.81
2018-07-13T16:30:57.463Z,29.51
2018-07-13T16:33:26.628Z,29.44
2018-07-13T16:35:55.617Z,29.37
2018-07-13T16:38:24.358Z,29.30
2018-07-13T16:40:53.308Z,29.28
2018-07-13T16:43:22.088Z,29.23
2018-07-13T16:45:50.901Z,29.21
2018-07-13T16:48:19.689Z,29.20
2018-07-13T16:50:48.444Z,29.15
2018-07-13T16:53:17.208Z,29.11
2018-07-13T16:55:45.983Z,29.06
2018-07-13T16:58:14.724Z,28.97
2018-07-13T17:00:43.474Z,28.88
2018-07-13T17:03:12.283Z,28.79
2018-07-13T17:05:41.015Z,28.66
2018-07-13T17:08:09.981Z,28.55
2018-07-13T17:10:38.702Z,28.43
2018-07-13T17:13:07.408Z,28.30
2018-07-13T17:15:36.442Z,28.16
2018-07-13T17:18:05.240Z,28.06
2018-07-13T17:20:34.307Z,27.97
2018-07-13T17:23:02.918Z,27.80
2018-07-13T17:25:31.887Z,27.74
2018-07-13T17:28:00.848Z,27.64
2018-07-13T17:30:29.575Z,27.63
2018-07-13T17:32:58.317Z,27.51
2018-07-13T17:35:27.110Z,27.42
2018-07-13T17:37:55.957Z,27.29
2018-07-13T17:40:24.728Z,27.13
2018-07-13T17:42:53.848Z,26.94
2018-07-13T17:45:22.541Z,26.84
2018-07-13T17:47:51.306Z,26.75
2018-07-13T17:50:20.009Z,26.61
2018-07-13T17:52:48.726Z,26.47
2018-07-13T17:55:17.437Z,26.30
2018-07-13T17:57:46.181Z,26.12
2018-07-13T18:00:14.968Z,25.98
2018-07-13T18:02:43.717Z,25.84
2018-07-13T18:05:12.470Z,25.72
2018-07-13T18:07:41.227Z,25.62
2018-07-13T18:10:09.985Z,25.52
2018-07-13T18:12:38.891Z,25.39
2018-07-13T18:15:07.617Z,25.36
2018-07-13T18:17:36.355Z,25.26
2018-07-13T18:20:05.099Z,25.13
2018-07-13T18:22:33.862Z,25.08
2018-07-13T18:25:02.637Z,25.06
2018-07-13T18:27:31.397Z,25.08
2018-07-13T18:30:00.126Z,25.07
2018-07-13T18:32:28.867Z,25.04
2018-07-13T18:34:57.672Z,24.90
2018-07-13T18:37:26.476Z,24.77
2018-07-13T18:39:55.416Z,24.70
2018-07-13T18:42:24.193Z,24.68
2018-07-13T18:44:52.952Z,24.69
2018-07-13T18:47:21.735Z,24.64
2018-07-13T18:49:50.536Z,24.50
2018-07-13T18:52:19.291Z,24.42
2018-07-13T18:54:48.048Z,24.38
2018-07-13T18:57:16.808Z,24.31
2018-07-13T18:59:45.530Z,24.24
2018-07-13T19:02:14.322Z,24.18
2018-07-13T19:04:43.084Z,24.14
2018-07-13T19:07:11.839Z,24.11
2018-07-13T19:09:40.679Z,24.10
2018-07-13T19:12:09.432Z,24.13
2018-07-13T19:14:38.264Z,24.09
2018-07-13T19:17:07.046Z,24.03
2018-07-13T19:19:35.884Z,24.03
2018-07-13T19:22:04.745Z,24.03
2018-07-13T19:24:33.559Z,23.99
2018-07-13T19:27:07.588Z,23.87
2018-07-13T19:29:36.367Z,23.73
2018-07-13T19:32:05.132Z,23.67
2018-07-13T19:34:33.921Z,23.60
2018-07-13T19:37:02.726Z,23.59
2018-07-13T19:39:31.660Z,23.53
2018-07-13T19:42:00.447Z,23.47
2018-07-13T19:44:29.196Z,23.40
2018-07-13T19:46:57.962Z,23.33
2018-07-13T19:49:26.722Z,23.27
2018-07-13T19:51:55.445Z,23.17
2018-07-13T19:54:24.210Z,23.07
2018-07-13T19:56:52.972Z,22.93
2018-07-13T19:59:21.924Z,22.81
2018-07-13T20:01:50.681Z,22.68
2018-07-13T20:04:19.444Z,22.67
2018-07-13T20:06:48.239Z,22.67
2018-07-13T20:09:17.026Z,22.56
2018-07-13T20:11:45.809Z,22.54
2018-07-13T20:14:14.636Z,22.46
2018-07-13T20:16:43.581Z,22.45
2018-07-13T20:19:12.445Z,22.45
2018-07-13T20:21:41.211Z,22.43
2018-07-13T20:24:10.041Z,22.42
2018-07-13T20:26:38.801Z,22.42
2018-07-13T20:29:07.591Z,22.37
2018-07-13T20:31:36.371Z,22.31
2018-07-13T20:34:05.097Z,22.22
2018-07-13T20:36:33.865Z,22.16
2018-07-13T20:39:02.722Z,22.20
2018-07-13T20:41:31.442Z,22.19
2018-07-13T20:44:00.204Z,22.18
2018-07-13T20:46:28.918Z,22.19
2018-07-13T20:48:57.625Z,22.17
2018-07-13T20:51:26.411Z,22.21
2018-07-13T20:53:55.125Z,22.17
2018-07-13T20:56:23.911Z,22.12
2018-07-13T20:58:52.657Z,22.09
2018-07-13T21:01:21.404Z,22.09
2018-07-13T21:03:50.156Z,21.99
2018-07-13T21:06:18.886Z,21.95
2018-07-13T21:08:47.645Z,21.95
2018-07-13T21:11:16.350Z,22.01
2018-07-13T21:13:45.070Z,21.98
2018-07-13T21:16:13.806Z,21.79
2018-07-13T21:18:46.835Z,21.67
2018-07-13T21:21:19.062Z,21.55
2018-07-13T21:23:51.201Z,21.52
2018-07-13T21:26:23.631Z,21.47
2018-07-13T21:28:52.453Z,21.57
2018-07-13T21:31:21.197Z,21.59
2018-07-13T21:33:50.044Z,21.60
2018-07-13T21:36:18.760Z,21.57
2018-07-13T21:38:47.590Z,21.57
2018-07-13T21:41:16.354Z,21.57
2018-07-13T21:43:45.089Z,21.53
2018-07-13T21:46:16.802Z,21.48
2018-07-13T21:48:45.591Z,21.46
2018-07-13T21:51:14.382Z,21.48
2018-07-13T21:53:43.218Z,21.46
2018-07-13T21:56:11.969Z,21.43
2018-07-13T21:58:40.717Z,21.45
2018-07-13T22:01:09.421Z,21.48
2018-07-13T22:03:38.174Z,21.56
2018-07-13T22:06:06.884Z,21.53
2018-07-13T22:08:35.619Z,21.36
2018-07-13T22:11:04.357Z,21.26
2018-07-13T22:13:33.067Z,21.09
2018-07-13T22:16:01.821Z,20.99
2018-07-13T22:18:30.555Z,20.93
2018-07-13T22:20:59.450Z,20.97
2018-07-13T22:23:28.305Z,20.98
2018-07-13T22:25:57.528Z,21.08
2018-07-13T22:28:26.469Z,21.05
2018-07-13T22:30:55.453Z,21.04
2018-07-13T22:33:24.176Z,20.95
2018-07-13T22:35:52.888Z,20.90
2018-07-13T22:38:21.644Z,20.87
2018-07-13T22:40:50.447Z,20.89
2018-07-13T22:43:19.175Z,20.80
2018-07-13T22:45:47.888Z,20.76
2018-07-13T22:48:16.629Z,20.82
2018-07-13T22:50:45.370Z,20.80
2018-07-13T22:53:14.150Z,20.67
2018-07-13T22:55:43.026Z,20.65
2018-07-13T22:58:11.734Z,20.54
2018-07-13T23:00:40.449Z,20.50
2018-07-13T23:03:09.167Z,20.52
2018-07-13T23:05:37.909Z,20.45
2018-07-13T23:08:06.609Z,20.45
2018-07-13T23:10:35.353Z,20.44
2018-07-13T23:13:04.085Z,20.39
2018-07-13T23:15:32.885Z,20.36
2018-07-13T23:18:01.683Z,20.37
2018-07-13T23:20:30.396Z,20.30
2018-07-13T23:22:59.101Z,20.32
2018-07-13T23:25:27.814Z,20.26
2018-07-13T23:27:56.515Z,20.24
2018-07-13T23:30:25.262Z,20.24
2018-07-13T23:32:53.970Z,20.23
2018-07-13T23:35:22.675Z,20.20
2018-07-13T23:37:51.457Z,20.12
2018-07-13T23:40:20.177Z,20.13
2018-07-13T23:42:49.159Z,20.13
2018-07-13T23:45:17.893Z,20.13
2018-07-13T23:47:46.604Z,20.09
2018-07-13T23:50:15.333Z,20.04
2018-07-13T23:52:44.049Z,20.02
2018-07-13T23:55:12.813Z,19.92
2018-07-13T23:57:41.610Z,19.90
